Time;durP1;ratioP1;P1;durP2;ratioP2;P2;SDS_P1;SDS_P2;PMS_P1;PMS_P2;Temp;Humidity;BMP_temperature;BMP_pressure;BME280_temperature;BME280_humidity;BME280_pressure;Samples;Min_cycle;Max_cycle;Signal;HPM_P1;HPM_P2
2023/03/15 00:00:18;;;;;;;9.30;4.80;;;;;;;4.07;100.00;98858.15;110343;1269;22935;-70
2023/03/15 00:02:46;;;;;;;9.60;5.60;;;;;;;4.04;100.00;98852.55;110380;1272;22216;-70
2023/03/15 00:05:15;;;;;;;7.80;4.90;;;;;;;4.01;100.00;98856.29;110338;1275;22500;-72
2023/03/15 00:07:44;;;;;;;9.40;5.00;;;;;;;3.98;100.00;98854.59;110333;1275;23073;-70
2023/03/15 00:10:12;;;;;;;9.80;5.50;;;;;;;3.95;100.00;98848.89;110386;1275;22987;-70
2023/03/15 00:12:41;;;;;;;8.30;5.00;;;;;;;3.98;100.00;98848.14;110326;1275;22353;-70
2023/03/15 00:15:13;;;;;;;8.60;5.20;;;;;;;3.99;100.00;98848.48;110385;1271;22163;-69
2023/03/15 00:17:43;;;;;;;9.30;5.30;;;;;;;3.95;100.00;98849.00;110339;1274;22402;-69
2023/03/15 00:20:13;;;;;;;9.90;5.40;;;;;;;3.90;100.00;98849.64;110382;1275;22284;-70
2023/03/15 00:22:43;;;;;;;11.00;5.40;;;;;;;3.86;100.00;98845.45;110313;1273;22395;-69
2023/03/15 00:25:13;;;;;;;8.70;5.20;;;;;;;3.89;100.00;98841.34;110367;1275;22170;-69
2023/03/15 00:27:42;;;;;;;8.00;4.90;;;;;;;3.91;100.00;98837.06;110324;1275;22418;-70
2023/03/15 00:30:11;;;;;;;9.30;5.30;;;;;;;3.87;100.00;98837.44;110373;1275;22401;-69
2023/03/15 00:32:40;;;;;;;9.40;5.40;;;;;;;3.82;100.00;98835.91;110365;1275;23025;-70
2023/03/15 00:35:11;;;;;;;8.90;5.00;;;;;;;3.78;100.00;98839.91;110173;1275;22375;-70
2023/03/15 00:37:40;;;;;;;8.80;5.20;;;;;;;3.82;100.00;98836.62;110343;1275;22416;-69
2023/03/15 00:40:09;;;;;;;8.70;5.40;;;;;;;3.83;100.00;98841.69;110338;1275;22397;-69
2023/03/15 00:42:38;;;;;;;9.60;5.30;;;;;;;3.78;100.00;98839.36;110322;1269;22380;-69
2023/03/15 00:45:07;;;;;;;10.80;5.50;;;;;;;3.73;100.00;98846.77;110361;1275;22563;-69
2023/03/15 00:47:35;;;;;;;10.70;5.50;;;;;;;3.68;100.00;98843.44;110167;1275;23067;-70
2023/03/15 00:50:04;;;;;;;10.10;5.60;;;;;;;3.70;100.00;98846.40;110356;1275;22915;-69
2023/03/15 00:52:35;;;;;;;7.60;5.00;;;;;;;3.69;100.00;98846.13;110229;1275;22352;-70
2023/03/15 00:55:03;;;;;;;8.00;5.30;;;;;;;3.63;100.00;98844.92;110387;1275;22203;-70
2023/03/15 00:57:33;;;;;;;8.60;5.70;;;;;;;3.57;100.00;98844.68;110323;1275;23039;-69
2023/03/15 01:00:07;;;;;;;10.00;5.50;;;;;;;3.54;100.00;98844.70;110369;1275;22279;-70
2023/03/15 01:02:36;;;;;;;7.20;4.70;;;;;;;3.56;100.00;98846.66;110328;1268;22320;-69
2023/03/15 01:05:05;;;;;;;8.10;5.00;;;;;;;3.57;100.00;98849.16;110372;1275;22361;-69
2023/03/15 01:07:34;;;;;;;9.60;5.60;;;;;;;3.52;100.00;98848.10;110174;1275;23085;-70
2023/03/15 01:10:06;;;;;;;12.10;6.00;;;;;;;3.45;100.00;98845.58;110357;1275;22227;-70
2023/03/15 01:12:35;;;;;;;8.60;5.20;;;;;;;3.44;100.00;98846.55;110347;1273;22818;-69
2023/03/15 01:15:06;;;;;;;8.20;5.10;;;;;;;3.46;100.00;98851.30;110396;1275;22295;-70
2023/03/15 01:17:36;;;;;;;9.20;5.30;;;;;;;3.41;100.00;98856.55;110375;1275;23117;-70
2023/03/15 01:20:05;;;;;;;9.50;5.50;;;;;;;3.34;100.00;98858.45;110312;1275;22170;-70
2023/03/15 01:22:36;;;;;;;10.30;5.70;;;;;;;3.30;100.00;98847.58;110313;1275;22989;-70
2023/03/15 01:25:04;;;;;;;9.90;5.60;;;;;;;3.31;100.00;98850.00;110388;1270;22422;-70
2023/03/15 01:27:34;;;;;;;8.20;5.00;;;;;;;3.25;100.00;98841.36;110323;1275;22303;-69
2023/03/15 01:30:03;;;;;;;10.90;5.40;;;;;;;3.17;100.00;98848.13;110324;1275;22424;-70
2023/03/15 01:32:33;;;;;;;10.10;5.20;;;;;;;3.15;100.00;98849.96;110149;1275;22475;-69
2023/03/15 01:35:02;;;;;;;9.90;5.00;;;;;;;3.16;100.00;98853.91;110363;1275;22637;-69
2023/03/15 01:37:33;;;;;;;10.60;5.80;;;;;;;3.13;100.00;98854.30;110154;1270;22884;-69
2023/03/15 01:40:05;;;;;;;9.30;5.60;;;;;;;3.07;100.00;98858.06;110195;1270;22289;-69
2023/03/15 01:42:51;;;;;;;9.30;5.60;;;;;;;3.02;100.00;98856.36;110360;1273;22377;-69
2023/03/15 01:46:08;;;;;;;8.60;5.90;;;;;;;3.04;100.00;98861.63;110139;1268;22437;-69
2023/03/15 01:48:45;;;;;;;9.00;5.30;;;;;;;2.99;100.00;98857.19;110149;1275;22296;-69
2023/03/15 01:51:33;;;;;;;9.10;5.70;;;;;;;2.92;100.00;98857.27;110153;1276;22448;-69
2023/03/15 01:54:07;;;;;;;12.30;5.80;;;;;;;2.88;100.00;98856.41;110225;1272;22413;-68
2023/03/15 01:56:39;;;;;;;10.00;5.20;;;;;;;2.90;100.00;98857.52;110178;1275;22464;-68
2023/03/15 01:59:20;;;;;;;12.10;6.20;;;;;;;2.89;100.00;98857.45;110305;1275;22214;-69
2023/03/15 02:01:49;;;;;;;11.10;5.50;;;;;;;2.84;100.00;98865.32;110130;1269;22211;-68
2023/03/15 02:04:23;;;;;;;9.40;6.00;;;;;;;2.80;100.00;98870.15;110159;1275;22257;-69
2023/03/15 02:06:57;;;;;;;10.00;5.90;;;;;;;2.83;100.00;98875.84;110087;1273;22975;-69
2023/03/15 02:09:56;;;;;;;9.60;5.40;;;;;;;2.87;100.00;98872.05;110253;1270;22287;-69
2023/03/15 02:12:25;;;;;;;9.60;5.30;;;;;;;2.83;100.00;98877.02;110038;1275;22257;-70
2023/03/15 02:14:58;;;;;;;9.70;5.50;;;;;;;2.76;100.00;98871.75;110345;1275;23073;-69
2023/03/15 02:17:34;;;;;;;8.60;5.80;;;;;;;2.78;100.00;98873.08;110021;1276;22305;-69
2023/03/15 02:20:10;;;;;;;11.40;5.80;;;;;;;2.81;100.00;98868.27;110274;1276;23051;-70
2023/03/15 02:22:48;;;;;;;9.80;6.30;;;;;;;2.77;100.00;98858.37;110163;1272;22440;-69
2023/03/15 02:25:51;;;;;;;9.60;5.70;;;;;;;2.72;100.00;98863.83;110255;1276;22416;-69
2023/03/15 02:28:20;;;;;;;9.30;5.60;;;;;;;2.76;100.00;98864.30;109898;1272;22436;-69
2023/03/15 02:30:48;;;;;;;10.50;5.70;;;;;;;2.78;100.00;98860.92;110043;1273;22359;-69
2023/03/15 02:33:25;;;;;;;8.10;5.10;;;;;;;2.74;100.00;98859.89;110119;1275;22316;-70
2023/03/15 02:35:55;;;;;;;10.70;5.50;;;;;;;2.70;100.00;98861.79;109978;1278;22363;-70
2023/03/15 02:38:29;;;;;;;9.10;5.30;;;;;;;2.72;100.00;98865.11;110046;1272;22267;-69
2023/03/15 02:40:59;;;;;;;9.80;5.40;;;;;;;2.73;100.00;98866.15;110233;1277;22208;-69
2023/03/15 02:43:28;;;;;;;10.30;5.40;;;;;;;2.68;100.00;98868.95;110058;1277;22385;-69
2023/03/15 02:45:56;;;;;;;10.30;5.70;;;;;;;2.63;100.00;98871.06;110129;1277;23101;-69
2023/03/15 02:48:25;;;;;;;9.40;5.90;;;;;;;2.63;100.00;98865.92;110063;1277;22427;-69
2023/03/15 02:50:53;;;;;;;9.70;5.70;;;;;;;2.65;100.00;98868.17;110077;1277;22341;-69
2023/03/15 02:53:22;;;;;;;8.00;5.70;;;;;;;2.61;100.00;98869.33;110104;1272;22797;-70
2023/03/15 02:55:56;;;;;;;7.40;5.20;;;;;;;2.55;100.00;98863.77;110187;1277;22400;-69
2023/03/15 02:58:25;;;;;;;8.90;5.70;;;;;;;2.50;100.00;98861.55;110054;1272;22700;-69
2023/03/15 03:00:54;;;;;;;7.50;5.20;;;;;;;2.50;100.00;98858.16;110149;1277;22394;-69
2023/03/15 03:03:22;;;;;;;8.90;5.40;;;;;;;2.54;100.00;98859.95;110096;1272;22384;-69
2023/03/15 03:05:50;;;;;;;11.00;5.80;;;;;;;2.50;100.00;98852.73;110115;1272;22329;-71
2023/03/15 03:08:19;;;;;;;10.30;5.90;;;;;;;2.46;100.00;98850.48;110023;1277;22174;-72
2023/03/15 03:10:50;;;;;;;9.70;5.80;;;;;;;2.47;100.00;98850.31;110075;1277;22216;-72
2023/03/15 03:13:18;;;;;;;8.80;5.70;;;;;;;2.48;100.00;98841.46;110068;1277;22446;-70
2023/03/15 03:15:57;;;;;;;8.00;5.30;;;;;;;2.44;100.00;98843.17;110146;1277;22931;-72
2023/03/15 03:18:30;;;;;;;11.20;6.30;;;;;;;2.38;100.00;98839.66;110087;1276;22965;-72
2023/03/15 03:20:59;;;;;;;11.20;5.90;;;;;;;2.39;100.00;98835.05;110082;1276;22266;-69
2023/03/15 03:23:28;;;;;;;10.60;5.90;;;;;;;2.39;100.00;98832.61;110102;1277;22250;-72
2023/03/15 03:25:57;;;;;;;10.50;6.20;;;;;;;2.36;100.00;98832.77;110185;1276;22324;-68
2023/03/15 03:28:28;;;;;;;11.50;6.00;;;;;;;2.31;100.00;98832.75;110217;1276;22398;-72
2023/03/15 03:30:58;;;;;;;7.90;5.90;;;;;;;2.31;100.00;98828.86;110161;1276;22251;-71
2023/03/15 03:33:29;;;;;;;9.20;5.50;;;;;;;2.33;100.00;98828.84;110286;1275;22409;-72
2023/03/15 03:36:03;;;;;;;11.70;6.20;;;;;;;2.30;100.00;98831.08;110355;1270;22301;-69
2023/03/15 03:38:31;;;;;;;8.60;5.50;;;;;;;2.24;100.00;98833.12;110174;1274;22529;-69
2023/03/15 03:41:01;;;;;;;11.70;5.60;;;;;;;2.21;100.00;98830.27;109974;1276;426482;-69
2023/03/15 03:45:06;;;;;;;8.40;5.40;;;;;;;2.24;100.00;98830.06;104741;1299;545833;-69
2023/03/15 03:47:39;;;;;;;10.30;6.30;;;;;;;2.19;100.00;98840.02;109521;1283;22473;-71
2023/03/15 03:50:09;;;;;;;11.10;6.50;;;;;;;2.22;100.00;98837.27;109429;1288;23116;-70
2023/03/15 03:52:45;;;;;;;10.60;6.10;;;;;;;2.25;100.00;98837.98;109555;1288;22485;-71
2023/03/15 03:55:23;;;;;;;11.20;5.90;;;;;;;2.28;100.00;98839.52;109453;1288;22330;-70
2023/03/15 03:57:53;;;;;;;10.50;6.70;;;;;;;2.25;100.00;98844.42;109210;1286;303079;-70
2023/03/15 04:00:44;;;;;;;10.80;6.30;;;;;;;2.23;100.00;98846.33;109613;1286;22357;-70
2023/03/15 04:03:13;;;;;;;9.60;5.90;;;;;;;2.28;100.00;98848.66;110034;1273;22219;-70
2023/03/15 04:05:47;;;;;;;10.80;6.40;;;;;;;2.31;100.00;98840.56;110092;1278;22419;-70
2023/03/15 04:08:19;;;;;;;9.20;6.10;;;;;;;2.28;100.00;98839.11;110054;1278;23313;-71
2023/03/15 04:10:52;;;;;;;11.60;6.70;;;;;;;2.24;100.00;98837.52;110103;1278;22183;-70
2023/03/15 04:13:22;;;;;;;10.30;6.50;;;;;;;2.27;100.00;98840.65;110061;1276;22182;-70
2023/03/15 04:15:51;;;;;;;8.90;6.40;;;;;;;2.29;100.00;98840.85;110048;1273;22359;-70
2023/03/15 04:18:25;;;;;;;11.80;6.30;;;;;;;2.32;100.00;98847.33;110016;1277;22381;-71
2023/03/15 04:20:54;;;;;;;9.60;6.10;;;;;;;2.27;100.00;98846.28;110020;1279;22191;-70
2023/03/15 04:23:23;;;;;;;11.90;6.70;;;;;;;2.20;100.00;98846.85;109977;1278;23053;-70
2023/03/15 04:26:16;;;;;;;9.80;5.80;;;;;;;2.21;100.00;98852.23;110133;1277;22406;-71
2023/03/15 04:28:52;;;;;;;10.20;5.80;;;;;;;2.22;100.00;98852.29;110115;1278;22487;-70
2023/03/15 04:31:49;;;;;;;13.60;7.00;;;;;;;2.23;100.00;98853.84;110033;1273;22390;-70
2023/03/15 04:34:28;;;;;;;10.10;6.30;;;;;;;2.18;100.00;98850.28;110045;1279;22297;-71
2023/03/15 04:37:09;;;;;;;10.10;6.50;;;;;;;2.13;100.00;98852.77;110023;1273;22300;-70
2023/03/15 04:40:00;;;;;;;9.10;5.70;;;;;;;2.17;100.00;98858.65;110028;1277;22464;-70
2023/03/15 04:42:50;;;;;;;10.40;5.90;;;;;;;2.21;100.00;98864.36;110072;1271;22314;-71
2023/03/15 04:45:40;;;;;;;9.30;6.40;;;;;;;2.20;100.00;98868.69;110109;1278;22207;-70
2023/03/15 04:48:30;;;;;;;9.60;6.30;;;;;;;2.24;100.00;98874.36;110069;1279;23368;-70
2023/03/15 04:51:19;;;;;;;10.40;5.90;;;;;;;2.37;100.00;98875.05;109915;1278;22341;-71
2023/03/15 04:54:01;;;;;;;10.40;6.40;;;;;;;2.51;100.00;98882.04;110021;1278;22436;-70
2023/03/15 04:56:49;;;;;;;11.60;6.80;;;;;;;2.57;100.00;98882.24;110131;1279;22944;-70
2023/03/15 04:59:30;;;;;;;11.50;6.40;;;;;;;2.61;100.00;98881.19;110046;1270;22760;-70
2023/03/15 05:02:13;;;;;;;11.00;6.30;;;;;;;2.68;100.00;98882.94;110200;1278;23007;-71
2023/03/15 05:05:00;;;;;;;10.10;6.50;;;;;;;2.72;100.00;98886.08;110144;1278;22300;-70
2023/03/15 05:08:06;;;;;;;10.80;6.70;;;;;;;2.62;100.00;98887.66;109701;1279;22450;-70
2023/03/15 05:10:50;;;;;;;8.10;5.90;;;;;;;2.54;100.00;98887.09;110151;1274;22202;-71
2023/03/15 05:13:44;;;;;;;9.80;6.10;;;;;;;2.54;100.00;98892.09;109953;1274;22367;-70
2023/03/15 05:16:43;;;;;;;8.30;5.50;;;;;;;2.55;100.00;98895.48;108646;1278;24228;-70
2023/03/15 05:19:14;;;;;;;10.80;6.70;;;;;;;2.54;100.00;98899.05;107228;1273;23320;-70
2023/03/15 05:22:00;;;;;;;9.70;6.20;;;;;;;2.51;100.00;98902.84;110107;1276;23193;-70
2023/03/15 05:24:58;;;;;;;10.70;5.90;;;;;;;2.56;100.00;98909.58;109568;1279;22437;-70
2023/03/15 05:27:39;;;;;;;9.40;6.20;;;;;;;2.60;100.00;98914.08;110030;1278;23110;-70
2023/03/15 05:30:33;;;;;;;9.80;5.70;;;;;;;2.60;100.00;98914.32;109932;1278;23630;-70
2023/03/15 05:33:25;;;;;;;11.00;6.20;;;;;;;2.59;100.00;98917.37;109941;1271;22227;-72
2023/03/15 05:36:20;;;;;;;9.70;5.70;;;;;;;2.65;100.00;98925.54;109990;1278;22513;-70
2023/03/15 05:39:07;;;;;;;11.00;5.50;;;;;;;2.71;100.00;98924.33;110129;1278;23284;-70
2023/03/15 05:41:54;;;;;;;11.90;6.50;;;;;;;2.73;100.00;98920.33;110141;1278;22751;-70
2023/03/15 05:44:55;;;;;;;9.80;6.10;;;;;;;2.78;100.00;98918.72;110019;1275;22213;-71
2023/03/15 05:47:30;;;;;;;11.50;6.60;;;;;;;2.88;100.00;98914.21;110035;1276;22209;-70
2023/03/15 05:50:26;;;;;;;12.20;6.20;;;;;;;2.97;100.00;98913.28;110028;1274;23219;-70
2023/03/15 05:53:05;;;;;;;10.30;6.80;;;;;;;2.98;100.00;98911.02;110000;1277;22279;-71
2023/03/15 05:55:54;;;;;;;8.20;5.70;;;;;;;3.07;100.00;98906.25;109823;1273;22402;-70
2023/03/15 05:58:39;;;;;;;7.90;5.70;;;;;;;3.16;100.00;98906.95;109993;1279;23171;-70
2023/03/15 06:01:08;;;;;;;9.80;6.20;;;;;;;3.23;100.00;98902.98;110021;1273;22300;-71
2023/03/15 06:03:51;;;;;;;10.80;6.10;;;;;;;3.33;100.00;98903.04;109941;1274;22195;-69
2023/03/15 06:06:21;;;;;;;11.70;6.50;;;;;;;3.41;100.00;98897.55;109977;1277;22293;-71
2023/03/15 06:08:49;;;;;;;9.50;6.50;;;;;;;3.45;100.00;98907.30;109966;1279;22971;-70
2023/03/15 06:11:19;;;;;;;9.10;5.80;;;;;;;3.53;100.00;98908.52;110100;1279;22394;-69
2023/03/15 06:13:48;;;;;;;11.80;6.60;;;;;;;3.60;100.00;98908.33;110028;1279;22229;-70
2023/03/15 06:16:27;;;;;;;11.80;7.10;;;;;;;3.62;100.00;98909.88;110023;1279;22207;-70
2023/03/15 06:18:57;;;;;;;11.90;7.40;;;;;;;3.63;100.00;98906.13;110004;1280;22310;-70
2023/03/15 06:21:26;;;;;;;9.10;6.70;;;;;;;3.67;100.00;98904.83;109973;1273;23209;-69
2023/03/15 06:23:56;;;;;;;11.10;6.90;;;;;;;3.78;100.00;98902.30;110024;1279;22319;-70
2023/03/15 06:26:25;;;;;;;11.90;6.60;;;;;;;3.87;100.00;98899.85;110024;1280;23150;-70
2023/03/15 06:28:57;;;;;;;12.80;7.20;;;;;;;3.85;100.00;98898.30;110004;1280;22382;-70
2023/03/15 06:31:26;;;;;;;10.20;6.90;;;;;;;3.83;100.00;98902.70;109976;1273;22810;-70
2023/03/15 06:34:02;;;;;;;11.00;7.20;;;;;;;3.90;100.00;98903.91;110009;1277;22412;-70
2023/03/15 06:36:35;;;;;;;12.10;6.40;;;;;;;4.06;100.00;98905.77;109996;1279;22284;-71
2023/03/15 06:39:04;;;;;;;10.00;6.40;;;;;;;4.16;100.00;98904.22;110001;1276;22380;-70
2023/03/15 06:41:33;;;;;;;10.00;6.80;;;;;;;4.19;100.00;98901.11;110003;1274;22373;-71
2023/03/15 06:44:07;;;;;;;11.30;7.10;;;;;;;4.24;100.00;98896.29;109947;1280;23020;-70
2023/03/15 06:46:36;;;;;;;11.50;6.20;;;;;;;4.38;100.00;98893.23;109942;1279;22735;-70
2023/03/15 06:49:11;;;;;;;11.20;6.70;;;;;;;4.48;100.00;98889.23;110014;1279;23409;-69
2023/03/15 06:51:43;;;;;;;11.80;7.00;;;;;;;4.44;100.00;98889.85;110045;1279;22365;-70
2023/03/15 06:54:12;;;;;;;12.80;6.90;;;;;;;4.38;100.00;98891.55;109998;1267;22223;-70
2023/03/15 06:56:40;;;;;;;9.00;6.30;;;;;;;4.36;100.00;98888.46;109929;1279;22343;-70
2023/03/15 06:59:09;;;;;;;11.60;7.20;;;;;;;4.46;100.00;98886.14;110049;1277;22212;-70
2023/03/15 07:01:42;;;;;;;8.80;6.60;;;;;;;4.62;100.00;98891.27;109989;1279;22440;-70
2023/03/15 07:04:10;;;;;;;10.70;6.80;;;;;;;4.66;100.00;98889.11;110116;1279;23130;-70
2023/03/15 07:06:38;;;;;;;11.40;6.80;;;;;;;4.66;100.00;98890.40;109984;1279;23705;-70
2023/03/15 07:09:07;;;;;;;10.50;6.60;;;;;;;4.70;100.00;98888.23;110066;1279;22244;-70
2023/03/15 07:11:36;;;;;;;10.30;5.90;;;;;;;4.81;100.00;98890.34;110018;1279;23793;-70
2023/03/15 07:14:04;;;;;;;11.40;7.00;;;;;;;4.94;100.00;98890.31;110042;1279;22287;-70
2023/03/15 07:16:33;;;;;;;10.70;6.90;;;;;;;4.97;100.00;98888.50;110042;1273;23121;-71
2023/03/15 07:19:02;;;;;;;9.90;7.10;;;;;;;5.02;100.00;98884.12;110015;1279;22431;-70
2023/03/15 07:21:33;;;;;;;11.40;6.70;;;;;;;5.11;100.00;98876.15;109970;1279;23094;-70
2023/03/15 07:24:02;;;;;;;11.90;7.20;;;;;;;5.32;100.00;98879.56;110050;1279;22256;-72
2023/03/15 07:26:31;;;;;;;8.70;6.00;;;;;;;5.52;100.00;98873.73;110001;1279;23218;-72
2023/03/15 07:28:59;;;;;;;12.00;7.20;;;;;;;5.69;100.00;98874.16;110020;1274;23016;-71
2023/03/15 07:31:28;;;;;;;10.10;6.80;;;;;;;5.80;100.00;98873.24;110015;1279;22254;-71
2023/03/15 07:33:57;;;;;;;10.70;6.80;;;;;;;5.91;100.00;98871.34;110116;1273;22320;-71
2023/03/15 07:36:25;;;;;;;13.40;7.80;;;;;;;6.12;100.00;98869.71;110168;1277;23072;-71
2023/03/15 07:38:53;;;;;;;10.00;7.40;;;;;;;6.38;100.00;98871.23;110097;1279;22326;-71
2023/03/15 07:41:24;;;;;;;12.80;7.50;;;;;;;6.59;100.00;98861.21;110011;1279;22407;-72
2023/03/15 07:44:05;;;;;;;13.00;7.10;;;;;;;6.73;100.00;98853.40;110008;1279;22320;-71
2023/03/15 07:46:33;;;;;;;9.40;6.10;;;;;;;6.82;100.00;98851.80;110130;1279;22367;-72
2023/03/15 07:49:01;;;;;;;11.10;6.00;;;;;;;6.82;100.00;98858.62;110101;1279;22289;-71
2023/03/15 07:51:30;;;;;;;9.00;6.50;;;;;;;6.98;100.00;98862.25;110000;1274;22239;-71
2023/03/15 07:53:59;;;;;;;9.20;6.10;;;;;;;7.36;100.00;98860.73;110060;1279;22397;-70
2023/03/15 07:56:28;;;;;;;10.00;5.10;;;;;;;7.80;100.00;98859.27;109988;1278;22338;-71
2023/03/15 07:58:56;;;;;;;7.00;5.00;;;;;;;8.21;100.00;98854.16;109983;1280;22286;-71
2023/03/15 08:01:24;;;;;;;10.10;5.00;;;;;;;8.52;100.00;98845.58;110031;1280;22756;-71
2023/03/15 08:03:53;;;;;;;9.90;5.30;;;;;;;8.76;100.00;98839.52;110028;1279;22796;-71
2023/03/15 08:06:26;;;;;;;7.80;4.70;;;;;;;8.97;100.00;98832.68;110114;1276;23267;-71
2023/03/15 08:08:56;;;;;;;8.60;5.30;;;;;;;9.04;100.00;98833.66;110062;1279;22502;-71
2023/03/15 08:11:24;;;;;;;9.20;5.10;;;;;;;9.04;100.00;98835.90;110174;1273;22209;-71
2023/03/15 08:13:56;;;;;;;9.80;5.70;;;;;;;9.00;100.00;98834.66;110037;1279;22786;-71
2023/03/15 08:16:24;;;;;;;8.70;5.60;;;;;;;9.02;100.00;98836.41;110142;1279;23104;-71
2023/03/15 08:18:54;;;;;;;9.10;5.90;;;;;;;9.10;100.00;98834.00;110001;1277;22286;-71
2023/03/15 08:21:22;;;;;;;9.50;5.40;;;;;;;9.29;100.00;98833.35;110037;1276;22470;-71
2023/03/15 08:23:51;;;;;;;8.70;5.80;;;;;;;9.47;100.00;98828.13;109955;1279;22216;-71
2023/03/15 08:26:21;;;;;;;10.70;6.50;;;;;;;9.63;100.00;98824.81;110115;1274;22340;-72
2023/03/15 08:28:49;;;;;;;10.70;6.30;;;;;;;9.71;100.00;98821.20;110049;1279;22354;-72
2023/03/15 08:31:18;;;;;;;7.30;5.60;;;;;;;9.78;100.00;98824.94;110061;1279;22993;-71
2023/03/15 08:33:47;;;;;;;7.90;5.60;;;;;;;9.71;100.00;98823.70;110127;1273;22341;-71
2023/03/15 08:36:18;;;;;;;11.50;5.80;;;;;;;9.59;100.00;98820.36;110014;1279;22327;-71
2023/03/15 08:38:48;;;;;;;7.70;5.40;;;;;;;9.68;100.00;98825.04;110047;1278;22356;-72
2023/03/15 08:41:17;;;;;;;8.20;5.60;;;;;;;9.90;100.00;98824.52;110018;1273;22432;-71
2023/03/15 08:43:45;;;;;;;9.90;5.80;;;;;;;10.10;100.00;98821.09;110117;1273;22251;-71
2023/03/15 08:46:14;;;;;;;6.80;4.90;;;;;;;10.13;100.00;98818.95;110130;1272;23010;-71
2023/03/15 08:48:42;;;;;;;8.40;5.80;;;;;;;10.28;100.00;98817.34;110147;1278;22284;-72
2023/03/15 08:51:12;;;;;;;12.10;5.90;;;;;;;10.36;100.00;98815.08;110226;1273;22828;-72
2023/03/15 08:53:42;;;;;;;9.50;6.20;;;;;;;10.32;100.00;98812.84;110128;1272;23398;-72
2023/03/15 08:56:11;;;;;;;10.00;5.40;;;;;;;10.39;100.00;98810.52;110147;1258;22435;-71
2023/03/15 08:58:40;;;;;;;7.30;5.20;;;;;;;10.42;100.00;98812.16;110153;1270;22216;-71
2023/03/15 09:01:13;;;;;;;7.90;5.10;;;;;;;10.40;100.00;98810.18;110170;1279;22440;-72
2023/03/15 09:03:43;;;;;;;8.60;5.30;;;;;;;10.39;100.00;98808.56;110174;1279;22789;-72
2023/03/15 09:06:12;;;;;;;7.80;5.00;;;;;;;10.42;100.00;98803.67;110146;1279;23275;-71
2023/03/15 09:08:40;;;;;;;9.50;5.90;;;;;;;10.45;100.00;98800.96;110101;1279;22443;-70
2023/03/15 09:11:09;;;;;;;8.80;4.70;;;;;;;10.51;100.00;98790.11;110094;1278;22305;-71
2023/03/15 09:13:37;;;;;;;10.00;4.70;;;;;;;10.56;100.00;98785.37;110165;1272;22221;-70
2023/03/15 09:16:07;;;;;;;7.10;4.20;;;;;;;10.63;100.00;98785.30;110273;1276;22244;-70
2023/03/15 09:18:36;;;;;;;8.20;4.70;;;;;;;10.71;100.00;98789.48;110181;1273;22326;-70
2023/03/15 09:21:06;;;;;;;8.90;4.50;;;;;;;10.81;100.00;98789.83;110165;1279;22407;-71
2023/03/15 09:23:43;;;;;;;8.60;5.10;;;;;;;10.86;100.00;98791.49;110189;1278;23265;-71
2023/03/15 09:26:12;;;;;;;9.20;4.90;;;;;;;10.96;100.00;98793.39;110205;1277;22332;-70
2023/03/15 09:28:40;;;;;;;6.30;5.10;;;;;;;11.09;100.00;98798.64;110151;1279;22289;-71
2023/03/15 09:31:09;;;;;;;11.10;5.70;;;;;;;11.16;100.00;98798.18;110175;1271;22882;-70
2023/03/15 09:33:38;;;;;;;9.40;6.00;;;;;;;11.30;100.00;98796.04;110179;1273;22266;-71
2023/03/15 09:36:12;;;;;;;9.20;6.10;;;;;;;11.48;100.00;98797.67;110138;1279;23152;-70
2023/03/15 09:38:42;;;;;;;8.50;5.10;;;;;;;11.55;100.00;98792.53;110168;1277;22360;-70
2023/03/15 09:41:17;;;;;;;8.40;5.10;;;;;;;11.54;100.00;98787.33;110245;1278;22243;-71
2023/03/15 09:44:21;;;;;;;9.90;5.60;;;;;;;11.54;100.00;98779.54;109964;1277;22452;-71
2023/03/15 09:47:02;;;;;;;8.00;5.10;;;;;;;11.59;100.00;98774.38;109964;1273;22662;-71
2023/03/15 09:49:32;;;;;;;8.30;5.50;;;;;;;11.70;100.00;98763.05;109991;1280;22212;-71
2023/03/15 09:52:23;;;;;;;11.30;5.90;;;;;;;11.73;100.00;98755.15;109958;1277;22435;-71
2023/03/15 09:54:55;;;;;;;10.60;5.60;;;;;;;11.68;100.00;98751.95;110032;1280;22393;-71
2023/03/15 09:57:33;;;;;;;7.90;5.40;;;;;;;11.72;100.00;98755.27;109924;1279;22209;-72
2023/03/15 10:00:10;;;;;;;7.80;4.70;;;;;;;11.73;100.00;98756.55;110040;1273;22156;-71
2023/03/15 10:02:43;;;;;;;11.40;5.80;;;;;;;11.72;100.00;98754.23;109959;1280;22488;-71
2023/03/15 10:05:18;;;;;;;10.40;5.80;;;;;;;11.77;100.00;98756.11;109980;1280;22441;-72
2023/03/15 10:07:47;;;;;;;9.10;5.70;;;;;;;11.71;100.00;98755.95;109944;1276;22180;-72
2023/03/15 10:10:27;;;;;;;9.90;5.70;;;;;;;11.64;100.00;98760.38;110119;1273;22247;-72
2023/03/15 10:13:26;;;;;;;7.00;5.10;;;;;;;11.52;100.00;98759.84;110021;1279;22514;-72
2023/03/15 10:16:00;;;;;;;7.90;5.00;;;;;;;11.47;100.00;98762.33;110059;1279;22309;-72
2023/03/15 10:18:51;;;;;;;9.10;4.50;;;;;;;11.50;100.00;98763.80;110152;1273;22337;-72
2023/03/15 10:21:49;;;;;;;9.20;5.30;;;;;;;11.46;100.00;98759.39;110142;1279;22607;-72
2023/03/15 10:24:23;;;;;;;7.50;5.20;;;;;;;11.30;100.00;98749.34;110109;1274;22551;-72
2023/03/15 10:26:51;;;;;;;9.30;4.70;;;;;;;11.23;100.00;98746.52;110039;1279;23459;-72
2023/03/15 10:29:22;;;;;;;6.70;4.30;;;;;;;11.31;100.00;98751.60;110098;1278;22411;-72
2023/03/15 10:31:51;;;;;;;6.00;4.20;;;;;;;11.41;100.00;98756.77;109992;1278;23057;-71
2023/03/15 10:34:20;;;;;;;6.10;4.20;;;;;;;11.44;100.00;98753.28;110010;1279;22444;-71
2023/03/15 10:36:53;;;;;;;6.90;4.20;;;;;;;11.51;100.00;98753.69;110016;1278;22376;-72
2023/03/15 10:39:24;;;;;;;6.80;4.20;;;;;;;11.60;100.00;98753.48;110251;1272;22261;-72
2023/03/15 10:41:52;;;;;;;7.00;3.90;;;;;;;11.57;100.00;98746.40;110127;1273;22684;-71
2023/03/15 10:44:24;;;;;;;6.10;4.10;;;;;;;11.53;100.00;98742.64;110146;1274;22374;-72
2023/03/15 10:47:10;;;;;;;7.70;4.30;;;;;;;11.54;100.00;98739.20;110151;1279;22264;-71
2023/03/15 10:49:57;;;;;;;7.10;4.20;;;;;;;11.57;100.00;98744.98;110178;1279;22254;-73
2023/03/15 10:52:37;;;;;;;6.30;4.00;;;;;;;11.55;100.00;98741.23;110251;1278;22330;-71
2023/03/15 10:55:17;;;;;;;7.90;4.20;;;;;;;11.59;100.00;98737.45;110384;1276;22310;-73
2023/03/15 10:57:56;;;;;;;8.30;3.70;;;;;;;11.58;100.00;98733.88;110404;1275;22395;-71
2023/03/15 11:00:30;;;;;;;7.70;4.70;;;;;;;11.60;100.00;98727.41;110432;1269;22960;-71
2023/03/15 11:03:15;;;;;;;7.60;4.90;;;;;;;11.57;100.00;98732.05;110388;1276;22271;-71
2023/03/15 11:05:48;;;;;;;8.30;4.90;;;;;;;11.57;100.00;98732.44;109603;1275;22546;-72
2023/03/15 11:08:24;;;;;;;7.70;4.70;;;;;;;11.60;100.00;98732.32;107601;1276;23373;-72
2023/03/15 11:10:58;;;;;;;6.20;4.20;;;;;;;11.55;100.00;98733.57;107495;1276;22677;-71
2023/03/15 11:13:27;;;;;;;6.40;4.50;;;;;;;11.52;100.00;98731.77;107422;1276;25598;-71
2023/03/15 11:16:08;;;;;;;8.00;4.90;;;;;;;11.60;100.00;98730.02;107501;1276;22513;-71
2023/03/15 11:18:43;;;;;;;8.80;5.10;;;;;;;11.76;100.00;98730.54;110347;1276;22215;-72
2023/03/15 11:21:13;;;;;;;7.20;4.60;;;;;;;11.87;100.00;98724.77;110387;1276;22343;-72
2023/03/15 11:23:44;;;;;;;6.50;4.20;;;;;;;11.96;100.00;98717.31;110374;1273;22309;-72
2023/03/15 11:26:18;;;;;;;6.60;4.40;;;;;;;12.04;100.00;98712.14;110305;1275;22936;-72
2023/03/15 11:29:13;;;;;;;7.30;4.70;;;;;;;12.00;100.00;98709.59;110307;1276;22252;-71
2023/03/15 11:31:42;;;;;;;8.30;4.70;;;;;;;11.88;100.00;98714.16;110346;1276;22373;-71
2023/03/15 11:34:52;;;;;;;6.30;4.00;;;;;;;11.86;100.00;98716.49;110279;1276;22422;-71
2023/03/15 11:37:24;;;;;;;7.50;4.60;;;;;;;11.87;100.00;98718.10;109882;1276;22246;-72
2023/03/15 11:40:15;;;;;;;6.00;3.80;;;;;;;11.82;100.00;98716.59;110333;1276;22277;-71
2023/03/15 11:42:55;;;;;;;5.70;3.80;;;;;;;11.87;100.00;98714.24;110354;1272;22398;-72
2023/03/15 11:45:42;;;;;;;8.30;4.20;;;;;;;11.97;100.00;98718.11;110321;1276;22343;-71
2023/03/15 11:48:47;;;;;;;8.50;4.60;;;;;;;12.03;100.00;98726.38;110352;1276;23071;-71
2023/03/15 11:51:15;;;;;;;7.60;4.30;;;;;;;11.99;100.00;98725.92;110239;1275;22340;-70
2023/03/15 11:54:06;;;;;;;6.60;4.10;;;;;;;11.98;100.00;98723.92;110324;1269;22952;-71